createdAt,value
2023-05-19T00:00:38.478Z,66.11
2023-05-19T00:01:38.493Z,67.09
2023-05-19T00:02:38.587Z,64.38
2023-05-19T00:03:38.533Z,63.67
2023-05-19T00:04:38.503Z,62.51
2023-05-19T00:05:38.562Z,61.84
2023-05-19T00:06:38.536Z,63.77
2023-05-19T00:07:38.526Z,64.55
2023-05-19T00:08:38.556Z,68.26
2023-05-19T00:09:38.569Z,65.79
2023-05-19T00:10:38.553Z,68.44
2023-05-19T00:11:38.730Z,67.95
2023-05-19T00:12:38.595Z,65.06
2023-05-19T00:13:38.606Z,62.10
2023-05-19T00:14:38.614Z,63.48
2023-05-19T00:15:38.705Z,66.01
2023-05-19T00:16:38.669Z,61.70
2023-05-19T00:17:38.686Z,63.31
2023-05-19T00:18:38.694Z,63.35
2023-05-19T00:19:38.700Z,67.33
2023-05-19T00:20:38.704Z,64.79
2023-05-19T00:21:38.699Z,66.83
2023-05-19T00:22:38.740Z,66.99
2023-05-19T00:23:38.762Z,64.84
2023-05-19T00:24:38.754Z,60.23
2023-05-19T00:25:38.761Z,66.69
2023-05-19T00:26:38.773Z,62.95
2023-05-19T00:27:38.767Z,62.75
2023-05-19T00:28:38.790Z,64.70
2023-05-19T00:29:38.827Z,64.14
2023-05-19T00:30:38.789Z,66.19
2023-05-19T00:31:38.849Z,66.09
2023-05-19T00:32:38.922Z,65.93
2023-05-19T00:33:38.823Z,57.95
2023-05-19T00:34:38.871Z,65.06
2023-05-19T00:35:38.870Z,60.23
2023-05-19T00:36:38.908Z,63.19
2023-05-19T00:37:38.875Z,57.17
2023-05-19T00:38:38.923Z,60.29
2023-05-19T00:39:38.924Z,62.33
2023-05-19T00:40:38.927Z,60.14
2023-05-19T00:41:38.931Z,60.80
2023-05-19T00:42:38.976Z,69.52
2023-05-19T00:43:39.006Z,65.19
2023-05-19T00:44:39.002Z,66.39
2023-05-19T00:45:39.001Z,64.35
2023-05-19T00:46:39.020Z,61.28
2023-05-19T00:47:39.033Z,65.15
2023-05-19T00:48:39.040Z,63.55
2023-05-19T00:49:39.069Z,68.51
2023-05-19T00:50:39.074Z,67.15
2023-05-19T00:51:39.231Z,65.96
2023-05-19T00:52:39.128Z,65.73
2023-05-19T00:53:39.118Z,65.67
2023-05-19T00:54:39.131Z,63.53
2023-05-19T00:55:39.175Z,65.70
2023-05-19T00:56:39.182Z,59.46
2023-05-19T00:57:39.209Z,63.62
2023-05-19T00:58:39.192Z,66.21
2023-05-19T00:59:39.213Z,65.92
2023-05-19T01:00:39.297Z,71.27
2023-05-19T01:01:39.328Z,62.09
2023-05-19T01:02:39.313Z,62.02
2023-05-19T01:03:39.300Z,67.70
2023-05-19T01:04:39.308Z,58.95
2023-05-19T01:05:39.319Z,66.85
2023-05-19T01:06:39.319Z,63.10
2023-05-19T01:07:39.326Z,64.34
2023-05-19T01:08:39.326Z,64.42
2023-05-19T01:09:39.370Z,63.14
2023-05-19T01:10:39.368Z,63.50
2023-05-19T01:11:39.415Z,63.43
2023-05-19T01:12:39.387Z,64.58
2023-05-19T01:13:41.914Z,66.85
2023-05-19T01:14:39.388Z,62.51
2023-05-19T01:15:39.388Z,67.45
2023-05-19T01:16:39.439Z,66.20
2023-05-19T01:17:39.441Z,60.94
2023-05-19T01:18:39.391Z,63.29
2023-05-19T01:19:39.331Z,66.40
2023-05-19T01:20:39.365Z,60.08
2023-05-19T01:21:39.342Z,66.53
2023-05-19T01:22:39.346Z,62.57
2023-05-19T01:23:39.338Z,64.98
2023-05-19T01:24:39.315Z,64.64
2023-05-19T01:25:39.359Z,63.96
2023-05-19T01:26:39.307Z,63.69
2023-05-19T01:27:39.316Z,66.88
2023-05-19T01:28:39.322Z,59.85
2023-05-19T01:29:39.311Z,60.49
2023-05-19T01:30:39.301Z,58.89
2023-05-19T01:31:39.308Z,60.28
2023-05-19T01:32:39.269Z,58.81
2023-05-19T01:33:39.236Z,59.17
2023-05-19T01:34:39.227Z,61.51
2023-05-19T01:35:39.256Z,62.36
2023-05-19T01:36:39.269Z,59.26
2023-05-19T01:37:39.244Z,61.39
2023-05-19T01:38:39.265Z,60.34
2023-05-19T01:39:39.202Z,62.10
2023-05-19T01:40:39.256Z,65.50
2023-05-19T01:41:39.183Z,62.52
2023-05-19T01:42:39.199Z,59.81
2023-05-19T01:43:39.217Z,57.37
2023-05-19T01:44:39.176Z,57.26
2023-05-19T01:45:39.222Z,60.62
2023-05-19T01:46:39.196Z,59.86
2023-05-19T01:47:39.230Z,59.37
2023-05-19T01:48:39.214Z,61.06
2023-05-19T01:49:39.174Z,57.35
2023-05-19T01:50:39.148Z,59.49
2023-05-19T01:51:39.268Z,67.87
2023-05-19T01:52:39.132Z,58.90
2023-05-19T01:53:39.096Z,60.42
2023-05-19T01:54:39.106Z,63.83
2023-05-19T01:55:39.155Z,59.53
2023-05-19T01:56:39.262Z,61.50
2023-05-19T01:57:39.107Z,59.16
2023-05-19T01:58:39.118Z,61.74
2023-05-19T01:59:39.078Z,58.81
2023-05-19T02:00:39.082Z,62.48
2023-05-19T02:01:39.165Z,60.84
2023-05-19T02:02:39.142Z,60.93
2023-05-19T02:03:39.056Z,64.46
2023-05-19T02:04:39.089Z,56.79
2023-05-19T02:05:39.052Z,57.21
2023-05-19T02:06:39.064Z,63.57
2023-05-19T02:07:39.028Z,59.41
2023-05-19T02:08:39.034Z,60.69
2023-05-19T02:09:39.054Z,59.44
2023-05-19T02:10:39.033Z,62.73
2023-05-19T02:11:38.985Z,55.18
2023-05-19T02:12:39.013Z,62.09
2023-05-19T02:13:39.012Z,62.45
2023-05-19T02:14:38.973Z,54.71
2023-05-19T02:15:39.045Z,58.38
2023-05-19T02:16:38.952Z,60.74
2023-05-19T02:17:38.993Z,54.84
2023-05-19T02:18:38.980Z,55.66
2023-05-19T02:19:38.959Z,59.57
2023-05-19T02:20:38.918Z,57.49
2023-05-19T02:21:38.946Z,63.33
2023-05-19T02:22:38.931Z,59.30
2023-05-19T02:23:38.942Z,61.43
2023-05-19T02:24:38.909Z,58.14
2023-05-19T02:25:38.910Z,59.71
2023-05-19T02:26:38.871Z,58.48
2023-05-19T02:27:38.875Z,60.01
2023-05-19T02:28:38.885Z,51.51
2023-05-19T02:29:38.869Z,58.67
2023-05-19T02:30:38.876Z,56.16
2023-05-19T02:31:38.935Z,59.92
2023-05-19T02:32:38.890Z,56.24
2023-05-19T02:33:38.843Z,56.39
2023-05-19T02:34:38.834Z,58.09
2023-05-19T02:35:38.819Z,57.63
2023-05-19T02:36:38.814Z,56.85
2023-05-19T02:37:38.811Z,59.67
2023-05-19T02:38:38.792Z,56.82
2023-05-19T02:39:38.823Z,57.50
2023-05-19T02:40:38.771Z,54.33
2023-05-19T02:41:38.815Z,55.35
2023-05-19T02:42:38.794Z,56.45
2023-05-19T02:43:38.804Z,60.12
2023-05-19T02:44:38.768Z,58.40
2023-05-19T02:45:38.891Z,56.88
2023-05-19T02:46:38.834Z,64.25
2023-05-19T02:47:38.806Z,57.31
2023-05-19T02:48:38.777Z,54.30
2023-05-19T02:49:38.758Z,55.92
2023-05-19T02:50:38.808Z,52.95
2023-05-19T02:51:38.836Z,59.89
2023-05-19T02:52:38.834Z,57.06
2023-05-19T02:53:38.942Z,55.71
2023-05-19T02:54:38.904Z,50.84
2023-05-19T02:55:38.892Z,53.66
2023-05-19T02:56:38.959Z,55.83
2023-05-19T02:57:38.951Z,53.33
2023-05-19T02:58:38.955Z,59.94
2023-05-19T02:59:38.979Z,56.51
2023-05-19T03:00:39.021Z,55.20
2023-05-19T03:01:39.042Z,56.89
2023-05-19T03:02:39.148Z,55.63
2023-05-19T03:03:39.128Z,55.25
2023-05-19T03:04:39.118Z,54.45
2023-05-19T03:05:39.152Z,53.63
2023-05-19T03:06:39.187Z,56.93
2023-05-19T03:07:39.205Z,54.88
2023-05-19T03:08:41.637Z,55.20
2023-05-19T03:09:39.289Z,56.73
2023-05-19T03:10:39.230Z,57.87
2023-05-19T03:11:39.198Z,54.58
2023-05-19T03:12:39.189Z,50.34
2023-05-19T03:13:39.198Z,52.33
2023-05-19T03:14:39.224Z,51.19
2023-05-19T03:15:39.217Z,52.48
2023-05-19T03:16:39.295Z,51.99
2023-05-19T03:17:39.274Z,54.11
2023-05-19T03:18:39.178Z,49.54
2023-05-19T03:19:39.168Z,53.88
2023-05-19T03:20:41.472Z,51.02
2023-05-19T03:21:39.224Z,51.29
2023-05-19T03:22:39.247Z,52.06
2023-05-19T03:23:39.263Z,52.06
2023-05-19T03:24:39.300Z,54.64
2023-05-19T03:25:39.288Z,57.00
2023-05-19T03:26:39.765Z,52.56
2023-05-19T03:27:39.390Z,52.26
2023-05-19T03:28:39.423Z,52.29
2023-05-19T03:29:39.448Z,52.69
2023-05-19T03:30:39.497Z,51.91
2023-05-19T03:31:39.801Z,52.86
2023-05-19T03:32:39.587Z,54.66
2023-05-19T03:33:39.567Z,51.34
2023-05-19T03:34:39.590Z,57.33
2023-05-19T03:35:39.643Z,55.49
2023-05-19T03:36:39.709Z,52.68
2023-05-19T03:37:39.665Z,53.85
2023-05-19T03:38:39.718Z,52.81
2023-05-19T03:39:39.789Z,54.18
2023-05-19T03:40:39.794Z,45.32
2023-05-19T03:41:39.797Z,50.02
2023-05-19T03:42:39.827Z,51.16
2023-05-19T03:43:39.857Z,46.36
2023-05-19T03:44:39.915Z,48.73
2023-05-19T03:45:40.040Z,50.96
2023-05-19T03:46:39.984Z,49.65
2023-05-19T03:47:40.051Z,55.33
2023-05-19T03:48:40.045Z,56.28
2023-05-19T03:49:40.095Z,53.42
2023-05-19T03:50:40.097Z,55.07
2023-05-19T03:51:40.147Z,49.98
2023-05-19T03:52:40.180Z,46.17
2023-05-19T03:53:40.191Z,49.09
2023-05-19T03:54:40.210Z,52.92
2023-05-19T03:55:40.276Z,52.38
2023-05-19T03:56:40.318Z,51.98
2023-05-19T03:57:40.322Z,56.39
2023-05-19T03:58:40.369Z,51.97
2023-05-19T03:59:40.404Z,51.93
2023-05-19T04:00:40.437Z,49.42
2023-05-19T04:01:40.497Z,49.84
2023-05-19T04:02:40.582Z,47.36
2023-05-19T04:03:40.615Z,52.58
2023-05-19T04:04:40.626Z,53.26
2023-05-19T04:05:40.654Z,50.55
2023-05-19T04:06:40.713Z,53.24
2023-05-19T04:07:40.717Z,54.66
2023-05-19T04:08:40.779Z,51.24
2023-05-19T04:09:40.809Z,48.02
2023-05-19T04:10:40.862Z,51.09
2023-05-19T04:11:40.899Z,48.87
2023-05-19T04:12:40.938Z,53.22
2023-05-19T04:13:40.925Z,50.47
2023-05-19T04:14:40.977Z,51.05
2023-05-19T04:15:41.031Z,50.26
2023-05-19T04:16:41.043Z,51.80
2023-05-19T04:17:41.135Z,49.69
2023-05-19T04:18:41.178Z,49.74
2023-05-19T04:19:41.170Z,51.35
2023-05-19T04:20:41.192Z,51.67
2023-05-19T04:21:41.223Z,48.82
2023-05-19T04:22:41.313Z,51.39
2023-05-19T04:23:41.290Z,50.28
2023-05-19T04:24:41.359Z,55.77
2023-05-19T04:25:41.378Z,51.48
2023-05-19T04:26:41.415Z,45.06
2023-05-19T04:27:41.481Z,49.58
2023-05-19T04:28:41.505Z,51.75
2023-05-19T04:29:41.538Z,48.23
2023-05-19T04:30:41.579Z,47.33
2023-05-19T04:31:41.859Z,48.01
2023-05-19T04:32:41.692Z,45.99
2023-05-19T04:33:41.746Z,50.96
2023-05-19T04:34:41.725Z,51.29
2023-05-19T04:35:41.828Z,47.69
2023-05-19T04:36:41.866Z,53.55
2023-05-19T04:37:41.864Z,51.28
2023-05-19T04:38:41.963Z,49.28
2023-05-19T04:39:41.984Z,47.01
2023-05-19T04:40:42.050Z,50.83
2023-05-19T04:41:42.063Z,48.42
2023-05-19T04:42:42.118Z,46.87
2023-05-19T04:43:42.172Z,50.35
2023-05-19T04:44:42.204Z,47.19
2023-05-19T04:45:42.340Z,46.41
2023-05-19T04:46:42.326Z,46.79
2023-05-19T04:47:42.421Z,47.94
2023-05-19T04:48:42.368Z,45.54
2023-05-19T04:49:42.396Z,49.09
2023-05-19T04:50:42.440Z,49.05
2023-05-19T04:51:42.478Z,47.28
2023-05-19T04:52:42.558Z,52.69
2023-05-19T04:53:42.544Z,55.83
2023-05-19T04:54:42.607Z,51.31
2023-05-19T04:55:42.641Z,50.36
2023-05-19T04:56:42.680Z,46.32
2023-05-19T04:57:42.718Z,45.18
2023-05-19T04:58:42.764Z,41.53
2023-05-19T04:59:42.841Z,44.82
2023-05-19T05:00:42.913Z,44.32
2023-05-19T05:01:43.000Z,42.34
2023-05-19T05:02:43.191Z,41.66
2023-05-19T05:03:43.079Z,40.87
2023-05-19T05:04:43.101Z,40.71
2023-05-19T05:05:43.191Z,35.66
2023-05-19T05:06:43.233Z,36.35
2023-05-19T05:07:43.294Z,38.45
2023-05-19T05:08:43.386Z,36.56
2023-05-19T05:09:43.453Z,34.99
2023-05-19T05:10:43.496Z,31.84
2023-05-19T05:11:43.602Z,35.76
2023-05-19T05:12:43.615Z,34.95
2023-05-19T05:13:43.682Z,35.66
2023-05-19T05:14:43.742Z,34.55
2023-05-19T05:15:43.794Z,32.82
2023-05-19T05:16:43.985Z,33.87
2023-05-19T05:17:43.901Z,31.36
2023-05-19T05:18:45.037Z,35.04
2023-05-19T05:19:43.999Z,34.85
2023-05-19T05:20:44.117Z,30.99
2023-05-19T05:21:44.119Z,31.62
2023-05-19T05:22:44.148Z,29.60
2023-05-19T05:23:44.256Z,31.52
2023-05-19T05:24:44.320Z,34.60
2023-05-19T05:25:44.354Z,31.89
2023-05-19T05:26:44.422Z,30.63
2023-05-19T05:27:44.483Z,31.24
2023-05-19T05:28:44.521Z,28.70
2023-05-19T05:29:44.593Z,31.84
2023-05-19T05:30:44.664Z,28.62
2023-05-19T05:31:44.690Z,31.21
2023-05-19T05:32:44.854Z,28.45
2023-05-19T05:33:44.841Z,30.07
2023-05-19T05:34:44.966Z,28.97
2023-05-19T05:35:44.921Z,30.88
2023-05-19T05:36:45.006Z,31.87
2023-05-19T05:37:45.048Z,31.24
2023-05-19T05:38:45.116Z,33.60
2023-05-19T05:39:45.159Z,28.99
2023-05-19T05:40:45.232Z,30.17
2023-05-19T05:41:45.260Z,31.24
2023-05-19T05:42:45.338Z,32.68
2023-05-19T05:43:45.426Z,33.03
2023-05-19T05:44:45.434Z,33.18
2023-05-19T05:45:45.565Z,34.86
2023-05-19T05:46:45.572Z,33.65
2023-05-19T05:47:45.679Z,32.98
2023-05-19T05:48:45.692Z,36.20
2023-05-19T05:49:45.753Z,35.64
2023-05-19T05:50:45.828Z,29.64
2023-05-19T05:51:54.697Z,31.46
2023-05-19T05:52:46.896Z,31.65
2023-05-19T05:53:45.882Z,31.70
2023-05-19T05:54:45.893Z,32.30
2023-05-19T05:55:45.890Z,33.90
2023-05-19T05:56:45.876Z,38.31
2023-05-19T05:57:45.856Z,27.72
2023-05-19T05:58:45.849Z,33.93
2023-05-19T05:59:45.840Z,31.90
2023-05-19T06:00:45.844Z,31.72
2023-05-19T06:01:45.907Z,29.69
2023-05-19T06:02:45.997Z,32.98
2023-05-19T06:03:46.065Z,30.16
2023-05-19T06:04:46.092Z,33.74
2023-05-19T06:05:46.135Z,34.92
2023-05-19T06:06:46.168Z,25.75
2023-05-19T06:07:46.254Z,31.75
2023-05-19T06:08:46.307Z,35.72
2023-05-19T06:09:46.334Z,34.33
2023-05-19T06:10:47.464Z,37.05
2023-05-19T06:11:46.822Z,37.27
2023-05-19T06:12:46.481Z,32.67
2023-05-19T06:13:46.550Z,40.95
2023-05-19T06:14:46.595Z,41.64
2023-05-19T06:15:46.746Z,46.94
2023-05-19T06:16:46.713Z,46.98
2023-05-19T06:17:46.790Z,46.25
2023-05-19T06:18:46.855Z,46.44
2023-05-19T06:19:46.871Z,53.08
2023-05-19T06:20:46.921Z,52.18
2023-05-19T06:21:46.963Z,56.90
2023-05-19T06:22:47.031Z,53.98
2023-05-19T06:23:47.066Z,54.72
2023-05-19T06:24:47.149Z,58.45
2023-05-19T06:25:47.149Z,58.16
2023-05-19T06:26:47.227Z,54.63
2023-05-19T06:27:47.306Z,54.80
2023-05-19T06:28:47.350Z,52.89
2023-05-19T06:29:47.399Z,53.32
2023-05-19T06:30:47.429Z,53.51
2023-05-19T06:31:47.542Z,57.08
2023-05-19T06:32:47.556Z,54.00
2023-05-19T06:33:47.576Z,54.42
2023-05-19T06:34:47.633Z,52.77
2023-05-19T06:35:47.661Z,51.50
2023-05-19T06:36:47.703Z,51.46
2023-05-19T06:37:47.797Z,51.44
2023-05-19T06:38:47.802Z,48.26
2023-05-19T06:39:47.863Z,50.27
2023-05-19T06:40:47.918Z,55.43
2023-05-19T06:41:48.321Z,52.95
2023-05-19T06:42:48.013Z,49.39
2023-05-19T06:43:48.043Z,49.96
2023-05-19T06:44:48.099Z,49.96
2023-05-19T06:45:48.143Z,52.82
2023-05-19T06:46:48.366Z,54.82
2023-05-19T06:47:48.277Z,56.15
2023-05-19T06:48:48.233Z,50.25
2023-05-19T06:49:48.286Z,51.58
2023-05-19T06:50:48.335Z,55.74
2023-05-19T06:51:48.371Z,53.60
2023-05-19T06:52:48.405Z,57.03
2023-05-19T06:53:48.444Z,57.08
2023-05-19T06:54:48.441Z,61.36
2023-05-19T06:55:58.725Z,57.13
2023-05-19T06:56:49.529Z,57.45
2023-05-19T06:57:48.505Z,57.80
2023-05-19T06:58:48.478Z,57.78
2023-05-19T06:59:48.493Z,58.38
2023-05-19T07:00:48.489Z,63.16
2023-05-19T07:01:48.494Z,64.29
2023-05-19T07:02:48.532Z,57.85
2023-05-19T07:03:48.557Z,61.63
2023-05-19T07:04:48.440Z,62.16
2023-05-19T07:05:48.464Z,59.54
2023-05-19T07:06:48.454Z,61.69
2023-05-19T07:07:48.448Z,61.09
2023-05-19T07:08:48.436Z,59.61
2023-05-19T07:09:48.431Z,57.13
2023-05-19T07:10:48.405Z,65.05
2023-05-19T07:11:48.494Z,60.70
2023-05-19T07:12:48.399Z,58.80
2023-05-19T07:13:48.469Z,57.19
2023-05-19T07:14:48.488Z,59.36
2023-05-19T07:15:48.533Z,55.45
2023-05-19T07:16:48.690Z,56.74
2023-05-19T07:17:48.603Z,52.47
2023-05-19T07:18:48.683Z,53.93
2023-05-19T07:19:48.679Z,56.44
2023-05-19T07:20:48.734Z,55.38
2023-05-19T07:21:48.853Z,52.22
2023-05-19T07:22:48.823Z,54.37
2023-05-19T07:23:48.782Z,54.62
2023-05-19T07:24:48.876Z,51.68
2023-05-19T07:25:48.909Z,55.20
2023-05-19T07:26:49.362Z,53.06
2023-05-19T07:27:48.990Z,54.73
2023-05-19T07:28:48.962Z,51.28
2023-05-19T07:29:49.022Z,49.77
2023-05-19T07:30:49.031Z,50.30
2023-05-19T07:31:49.415Z,51.40
2023-05-19T07:32:49.141Z,50.36
2023-05-19T07:33:49.127Z,56.50
2023-05-19T07:34:49.161Z,55.71
2023-05-19T07:35:49.832Z,49.25
2023-05-19T07:36:49.222Z,53.34
2023-05-19T07:37:49.266Z,51.63
2023-05-19T07:38:49.298Z,50.76
2023-05-19T07:39:49.348Z,48.70
2023-05-19T07:40:49.351Z,51.43
2023-05-19T07:41:49.422Z,51.53
2023-05-19T07:42:49.474Z,44.54
2023-05-19T07:43:49.528Z,49.57
2023-05-19T07:44:49.504Z,49.12
2023-05-19T07:45:49.586Z,49.61
2023-05-19T07:46:49.626Z,50.25
2023-05-19T07:47:49.678Z,51.17
2023-05-19T07:48:49.721Z,45.12
2023-05-19T07:49:51.711Z,46.56
2023-05-19T07:50:49.764Z,44.76
2023-05-19T07:51:49.799Z,44.40
2023-05-19T07:52:49.845Z,48.53
2023-05-19T07:53:49.884Z,46.73
2023-05-19T07:54:49.938Z,44.75
2023-05-19T07:55:49.966Z,45.20
2023-05-19T07:56:50.385Z,43.53
2023-05-19T07:57:50.043Z,42.12
2023-05-19T07:58:50.111Z,44.18
2023-05-19T07:59:50.153Z,38.86
2023-05-19T08:00:50.191Z,40.86
2023-05-19T08:01:50.275Z,42.84
2023-05-19T08:02:50.358Z,48.43
2023-05-19T08:03:50.481Z,42.57
2023-05-19T08:04:50.452Z,38.49
2023-05-19T08:05:50.404Z,36.32
2023-05-19T08:06:50.448Z,41.44
2023-05-19T08:07:50.504Z,44.67
2023-05-19T08:08:50.523Z,46.12
2023-05-19T08:09:50.573Z,43.46
2023-05-19T08:10:50.589Z,38.66
2023-05-19T08:11:50.644Z,38.00
2023-05-19T08:12:50.707Z,36.03
2023-05-19T08:13:50.716Z,42.35
2023-05-19T08:14:50.772Z,35.80
2023-05-19T08:15:51.021Z,39.03
2023-05-19T08:16:50.954Z,37.10
2023-05-19T08:17:50.906Z,37.05
2023-05-19T08:18:50.990Z,37.66
2023-05-19T08:19:50.967Z,36.54
2023-05-19T08:20:51.018Z,42.59
2023-05-19T08:21:51.394Z,37.77
2023-05-19T08:22:51.085Z,42.21
2023-05-19T08:23:51.135Z,32.74
2023-05-19T08:24:51.190Z,41.79
2023-05-19T08:25:51.244Z,40.88
2023-05-19T08:26:51.329Z,37.02
2023-05-19T08:27:51.325Z,41.06
2023-05-19T08:28:51.388Z,40.96
2023-05-19T08:29:51.446Z,42.99
2023-05-19T08:30:51.434Z,40.47
2023-05-19T08:31:51.624Z,46.65
2023-05-19T08:32:51.557Z,45.93
2023-05-19T08:33:51.557Z,44.79
2023-05-19T08:34:51.590Z,51.70
2023-05-19T08:35:51.613Z,52.01
2023-05-19T08:36:51.852Z,45.35
2023-05-19T08:37:51.670Z,46.11
2023-05-19T08:38:51.673Z,49.88
2023-05-19T08:39:51.693Z,43.57
2023-05-19T08:40:51.746Z,42.55
2023-05-19T08:41:51.784Z,44.35
2023-05-19T08:42:51.766Z,47.24
2023-05-19T08:43:51.787Z,42.03
2023-05-19T08:44:51.812Z,49.38
2023-05-19T08:45:51.834Z,46.71
2023-05-19T08:46:51.888Z,48.83
2023-05-19T08:47:51.854Z,45.51
2023-05-19T08:48:51.876Z,47.35
2023-05-19T08:49:51.890Z,51.04
2023-05-19T08:50:51.898Z,52.66
2023-05-19T08:51:51.945Z,48.03
2023-05-19T08:52:53.244Z,46.08
2023-05-19T08:53:51.958Z,43.39
2023-05-19T08:54:51.979Z,51.41
2023-05-19T08:55:51.995Z,43.62
2023-05-19T08:56:52.355Z,45.03
2023-05-19T08:57:52.060Z,47.31
2023-05-19T08:58:52.061Z,55.72
2023-05-19T08:59:52.066Z,47.60
2023-05-19T09:00:52.078Z,51.86
2023-05-19T09:01:52.098Z,44.42
2023-05-19T09:03:00.910Z,42.00
2023-05-19T09:03:53.168Z,42.30
2023-05-19T09:04:52.152Z,43.40
2023-05-19T09:05:52.208Z,44.63
2023-05-19T09:06:52.098Z,39.82
2023-05-19T09:07:52.124Z,47.29
2023-05-19T09:08:52.065Z,43.23
2023-05-19T09:09:52.043Z,47.51
2023-05-19T09:10:52.075Z,45.96
2023-05-19T09:11:52.064Z,43.52
2023-05-19T09:12:52.014Z,46.54
2023-05-19T09:13:52.038Z,44.56
2023-05-19T09:14:52.015Z,46.84
2023-05-19T09:15:52.018Z,53.29
2023-05-19T09:16:52.046Z,52.90
2023-05-19T09:17:52.063Z,44.86
2023-05-19T09:18:52.046Z,50.73
2023-05-19T09:19:51.975Z,50.98
2023-05-19T09:20:51.984Z,48.34
2023-05-19T09:21:51.979Z,48.29
2023-05-19T09:22:52.011Z,45.89
2023-05-19T09:23:51.961Z,43.30
2023-05-19T09:24:51.971Z,48.37
2023-05-19T09:25:51.977Z,48.12
2023-05-19T09:26:51.956Z,50.28
2023-05-19T09:27:51.967Z,49.87
2023-05-19T09:28:52.000Z,51.76
2023-05-19T09:29:52.007Z,45.85
2023-05-19T09:30:52.005Z,50.82
2023-05-19T09:31:52.436Z,53.07
2023-05-19T09:32:52.106Z,47.01
2023-05-19T09:33:52.049Z,52.17
2023-05-19T09:34:52.057Z,41.99
2023-05-19T09:35:52.060Z,50.29
2023-05-19T09:36:52.392Z,54.29
2023-05-19T09:37:52.085Z,53.43
2023-05-19T09:38:52.119Z,52.89
2023-05-19T09:39:52.133Z,52.22
2023-05-19T09:40:52.141Z,53.52
2023-05-19T09:41:52.140Z,52.17
2023-05-19T09:42:52.121Z,51.73
2023-05-19T09:43:52.168Z,53.26
2023-05-19T09:44:52.177Z,54.03
2023-05-19T09:45:52.209Z,49.30
2023-05-19T09:46:52.192Z,55.19
2023-05-19T09:47:52.237Z,52.55
2023-05-19T09:48:52.195Z,54.78
2023-05-19T09:49:52.248Z,51.11
2023-05-19T09:50:52.251Z,56.24
2023-05-19T09:51:52.276Z,55.33
2023-05-19T09:52:52.244Z,54.64
2023-05-19T09:53:52.277Z,56.04
2023-05-19T09:54:52.279Z,55.18
2023-05-19T09:55:52.289Z,61.10
2023-05-19T09:56:52.406Z,55.19
2023-05-19T09:57:52.270Z,56.02
2023-05-19T09:58:52.274Z,64.94
2023-05-19T09:59:52.313Z,61.54
2023-05-19T10:00:52.298Z,54.15
2023-05-19T10:01:52.359Z,59.39
2023-05-19T10:02:52.319Z,60.66
2023-05-19T10:03:52.304Z,61.47
2023-05-19T10:04:52.339Z,66.79
2023-05-19T10:05:52.321Z,59.45
2023-05-19T10:06:52.278Z,59.10
2023-05-19T10:07:52.306Z,53.30
2023-05-19T10:08:52.290Z,62.86
2023-05-19T10:09:52.292Z,55.73
2023-05-19T10:10:52.299Z,62.61
2023-05-19T10:11:52.293Z,57.34
2023-05-19T10:12:52.320Z,60.37
2023-05-19T10:13:52.290Z,69.01
2023-05-19T10:14:52.306Z,59.91
2023-05-19T10:16:52.348Z,58.46
2023-05-19T10:17:52.370Z,60.00
2023-05-19T10:18:52.339Z,57.17
2023-05-19T10:19:52.283Z,55.37
2023-05-19T10:20:52.268Z,58.52
2023-05-19T10:21:52.299Z,62.27
2023-05-19T10:22:52.253Z,60.50
2023-05-19T10:23:52.276Z,55.99
2023-05-19T10:24:52.242Z,60.81
2023-05-19T10:25:52.256Z,63.27
2023-05-19T10:26:52.413Z,60.94
2023-05-19T10:27:52.224Z,60.44
2023-05-19T10:28:52.224Z,60.95
2023-05-19T10:29:52.209Z,62.17
2023-05-19T10:30:52.227Z,56.37
2023-05-19T10:31:52.242Z,60.99
2023-05-19T10:32:52.258Z,64.47
2023-05-19T10:33:52.191Z,68.02
2023-05-19T10:34:52.184Z,62.03
2023-05-19T10:35:52.217Z,57.67
2023-05-19T10:36:52.161Z,59.45
2023-05-19T10:37:52.153Z,61.36
2023-05-19T10:38:52.142Z,57.90
2023-05-19T10:39:52.160Z,58.34
2023-05-19T10:40:52.136Z,64.76
2023-05-19T10:41:52.119Z,57.33
2023-05-19T10:42:52.129Z,55.00
2023-05-19T10:43:52.137Z,58.73
2023-05-19T10:44:52.116Z,63.06
2023-05-19T10:45:52.128Z,68.99
2023-05-19T10:46:53.510Z,61.94
2023-05-19T10:47:52.108Z,62.27
2023-05-19T10:48:52.077Z,61.14
2023-05-19T10:49:52.107Z,63.44
2023-05-19T10:50:52.092Z,64.01
2023-05-19T10:51:52.086Z,67.09
2023-05-19T10:52:52.029Z,68.66
2023-05-19T10:53:52.053Z,67.13
2023-05-19T10:54:52.037Z,66.99
2023-05-19T10:55:52.053Z,61.24
2023-05-19T10:56:52.060Z,69.15
2023-05-19T10:57:52.019Z,68.77
2023-05-19T10:58:52.004Z,70.45
2023-05-19T10:59:52.052Z,67.77
2023-05-19T11:00:51.990Z,68.51
2023-05-19T11:01:52.042Z,68.43
2023-05-19T11:02:52.014Z,70.57
2023-05-19T11:03:52.021Z,70.72
2023-05-19T11:04:52.226Z,70.28
2023-05-19T11:05:51.948Z,70.17
2023-05-19T11:06:51.954Z,69.09
2023-05-19T11:07:51.980Z,70.22
2023-05-19T11:08:51.942Z,69.98
2023-05-19T11:09:51.958Z,69.53
2023-05-19T11:10:51.928Z,69.95
2023-05-19T11:11:51.969Z,66.01
2023-05-19T11:12:52.141Z,67.42
2023-05-19T11:13:51.918Z,66.03
2023-05-19T11:14:51.912Z,68.53
2023-05-19T11:15:51.916Z,68.61
2023-05-19T11:16:52.055Z,70.00
2023-05-19T11:17:51.918Z,70.16
2023-05-19T11:18:51.892Z,71.22
2023-05-19T11:19:51.891Z,68.56
2023-05-19T11:20:51.917Z,70.17
2023-05-19T11:21:51.871Z,69.92
2023-05-19T11:22:51.880Z,70.62
2023-05-19T11:23:51.944Z,73.54
2023-05-19T11:24:51.813Z,72.50
2023-05-19T11:25:51.861Z,70.31
2023-05-19T11:26:51.818Z,71.35
2023-05-19T11:27:51.817Z,65.59
2023-05-19T11:28:51.904Z,70.67
2023-05-19T11:29:51.826Z,70.80
2023-05-19T11:30:51.939Z,69.45
2023-05-19T11:31:51.877Z,68.16
2023-05-19T11:32:51.806Z,69.46
2023-05-19T11:33:51.826Z,70.87
2023-05-19T11:34:51.757Z,72.27
2023-05-19T11:35:51.779Z,73.74
2023-05-19T11:36:51.757Z,73.06
2023-05-19T11:37:51.747Z,69.71
2023-05-19T11:38:51.744Z,70.34
2023-05-19T11:39:51.747Z,72.20
2023-05-19T11:40:51.754Z,73.69
2023-05-19T11:41:51.718Z,74.31
2023-05-19T11:42:51.692Z,74.75
2023-05-19T11:43:51.714Z,73.68
2023-05-19T11:44:51.688Z,81.22
2023-05-19T11:45:51.744Z,82.97
2023-05-19T11:46:51.783Z,77.88
2023-05-19T11:48:02.138Z,78.23
2023-05-19T11:48:52.685Z,78.64
2023-05-19T11:49:51.651Z,78.54
2023-05-19T11:50:51.656Z,79.33
2023-05-19T11:51:51.929Z,80.35
2023-05-19T11:52:51.640Z,79.02
2023-05-19T11:53:51.610Z,80.77
2023-05-19T11:54:51.644Z,79.77
2023-05-19T11:55:52.219Z,85.93
2023-05-19T11:56:51.669Z,81.05
2023-05-19T11:58:02.741Z,80.35
2023-05-19T11:58:52.699Z,80.67
2023-05-19T11:59:51.685Z,80.92
2023-05-19T12:00:51.691Z,81.79
2023-05-19T12:01:51.667Z,81.59
2023-05-19T12:02:51.745Z,88.49
2023-05-19T12:03:51.835Z,83.90
2023-05-19T12:04:51.702Z,85.81
2023-05-19T12:05:51.836Z,87.32
2023-05-19T12:06:51.733Z,84.57
2023-05-19T12:07:51.768Z,89.37
2023-05-19T12:08:51.800Z,89.79
2023-05-19T12:09:51.888Z,87.68
2023-05-19T12:10:51.929Z,87.43
2023-05-19T12:11:52.021Z,87.07
2023-05-19T12:12:52.056Z,83.60
2023-05-19T12:13:52.136Z,86.60
2023-05-19T12:14:52.146Z,85.48
2023-05-19T12:15:52.308Z,88.22
2023-05-19T12:16:52.479Z,87.39
2023-05-19T12:17:52.374Z,86.59
2023-05-19T12:18:52.398Z,83.29
2023-05-19T12:19:52.440Z,87.03
2023-05-19T12:20:52.491Z,84.79
2023-05-19T12:21:52.563Z,83.41
2023-05-19T12:22:52.601Z,87.91
2023-05-19T12:23:52.733Z,87.22
2023-05-19T12:24:52.759Z,84.04
2023-05-19T12:25:52.780Z,88.55
2023-05-19T12:26:52.852Z,87.49
2023-05-19T12:27:52.872Z,83.22
2023-05-19T12:28:52.978Z,82.57
2023-05-19T12:29:53.038Z,82.25
2023-05-19T12:30:53.069Z,85.40
2023-05-19T12:31:53.118Z,83.47
2023-05-19T12:32:53.207Z,87.46
2023-05-19T12:33:53.206Z,84.73
2023-05-19T12:34:53.305Z,83.80
2023-05-19T12:35:53.359Z,83.81
2023-05-19T12:36:53.463Z,86.54
2023-05-19T12:37:54.458Z,83.29
2023-05-19T12:38:53.530Z,85.34
2023-05-19T12:39:53.567Z,86.72
2023-05-19T12:40:53.645Z,86.85
2023-05-19T12:41:53.962Z,84.42
2023-05-19T12:42:53.719Z,83.39
2023-05-19T12:43:53.767Z,86.68
2023-05-19T12:44:53.862Z,80.92
2023-05-19T12:45:53.960Z,84.50
2023-05-19T12:46:54.443Z,86.13
2023-05-19T12:47:54.015Z,85.72
2023-05-19T12:48:54.074Z,86.52
2023-05-19T12:49:54.105Z,82.83
2023-05-19T12:50:54.168Z,84.95
2023-05-19T12:51:54.458Z,88.42
2023-05-19T12:52:54.281Z,89.05
2023-05-19T12:53:54.366Z,86.61